sensor_id;sensor_type;location;lat;lon;timestamp;P1;durP1;ratioP1;P2;durP2;ratioP2
59766;SDS011;46248;58.364;25.582;2023-02-12T00:00:40;27.67;;;11.95;;
59766;SDS011;46248;58.364;25.582;2023-02-12T00:04:04;13.13;;;5.45;;
59766;SDS011;46248;58.364;25.582;2023-02-12T00:07:28;5.40;;;3.25;;
59766;SDS011;46248;58.364;25.582;2023-02-12T00:10:50;3.28;;;1.35;;
59766;SDS011;46248;58.364;25.582;2023-02-12T00:14:13;3.60;;;1.15;;
59766;SDS011;46248;58.364;25.582;2023-02-12T00:17:35;1.23;;;0.63;;
59766;SDS011;46248;58.364;25.582;2023-02-12T00:20:57;1.10;;;0.52;;
59766;SDS011;46248;58.364;25.582;2023-02-12T00:24:20;2.03;;;1.08;;
59766;SDS011;46248;58.364;25.582;2023-02-12T00:27:42;4.32;;;0.93;;
59766;SDS011;46248;58.364;25.582;2023-02-12T00:31:06;1.75;;;0.40;;
59766;SDS011;46248;58.364;25.582;2023-02-12T00:34:29;2.38;;;0.57;;
59766;SDS011;46248;58.364;25.582;2023-02-12T00:37:52;2.90;;;0.73;;
59766;SDS011;46248;58.364;25.582;2023-02-12T00:41:14;3.72;;;0.52;;
59766;SDS011;46248;58.364;25.582;2023-02-12T00:44:36;3.78;;;0.60;;
59766;SDS011;46248;58.364;25.582;2023-02-12T00:47:59;2.08;;;0.70;;
59766;SDS011;46248;58.364;25.582;2023-02-12T00:51:21;2.42;;;1.00;;
59766;SDS011;46248;58.364;25.582;2023-02-12T00:54:44;1.90;;;0.75;;
59766;SDS011;46248;58.364;25.582;2023-02-12T00:58:06;4.97;;;1.20;;
59766;SDS011;46248;58.364;25.582;2023-02-12T01:01:28;4.82;;;1.63;;
59766;SDS011;46248;58.364;25.582;2023-02-12T01:04:51;8.70;;;1.92;;
59766;SDS011;46248;58.364;25.582;2023-02-12T01:08:14;4.40;;;1.20;;
59766;SDS011;46248;58.364;25.582;2023-02-12T01:11:36;7.20;;;1.52;;
59766;SDS011;46248;58.364;25.582;2023-02-12T01:14:58;4.22;;;1.65;;
59766;SDS011;46248;58.364;25.582;2023-02-12T01:18:21;4.55;;;1.60;;
59766;SDS011;46248;58.364;25.582;2023-02-12T01:21:44;3.17;;;1.50;;
59766;SDS011;46248;58.364;25.582;2023-02-12T01:25:06;1.83;;;0.98;;
59766;SDS011;46248;58.364;25.582;2023-02-12T01:28:29;3.45;;;0.70;;
59766;SDS011;46248;58.364;25.582;2023-02-12T01:31:51;5.53;;;0.95;;
59766;SDS011;46248;58.364;25.582;2023-02-12T01:35:12;1.33;;;0.95;;
59766;SDS011;46248;58.364;25.582;2023-02-12T01:38:36;3.40;;;1.00;;
59766;SDS011;46248;58.364;25.582;2023-02-12T01:41:58;2.63;;;1.13;;
59766;SDS011;46248;58.364;25.582;2023-02-12T01:49:17;3.88;;;1.92;;
59766;SDS011;46248;58.364;25.582;2023-02-12T01:52:43;4.63;;;2.00;;
59766;SDS011;46248;58.364;25.582;2023-02-12T01:56:09;6.28;;;2.38;;
59766;SDS011;46248;58.364;25.582;2023-02-12T01:59:32;2.92;;;1.20;;
59766;SDS011;46248;58.364;25.582;2023-02-12T02:02:56;4.15;;;1.45;;
59766;SDS011;46248;58.364;25.582;2023-02-12T02:06:21;3.72;;;0.85;;
59766;SDS011;46248;58.364;25.582;2023-02-12T02:09:47;4.78;;;1.15;;
59766;SDS011;46248;58.364;25.582;2023-02-12T02:13:10;3.80;;;1.45;;
59766;SDS011;46248;58.364;25.582;2023-02-12T02:16:58;5.35;;;1.25;;
59766;SDS011;46248;58.364;25.582;2023-02-12T02:28:36;5.13;;;0.80;;
59766;SDS011;46248;58.364;25.582;2023-02-12T02:32:18;4.68;;;0.80;;
59766;SDS011;46248;58.364;25.582;2023-02-12T02:35:46;0.43;;;0.43;;
59766;SDS011;46248;58.364;25.582;2023-02-12T02:39:15;4.07;;;0.65;;
59766;SDS011;46248;58.364;25.582;2023-02-12T02:42:44;0.80;;;0.30;;
59766;SDS011;46248;58.364;25.582;2023-02-12T02:46:13;3.00;;;0.40;;
59766;SDS011;46248;58.364;25.582;2023-02-12T02:49:47;4.15;;;0.40;;
59766;SDS011;46248;58.364;25.582;2023-02-12T02:53:13;0.98;;;0.32;;
59766;SDS011;46248;58.364;25.582;2023-02-12T02:56:40;1.63;;;0.45;;
59766;SDS011;46248;58.364;25.582;2023-02-12T03:00:06;0.63;;;0.30;;
59766;SDS011;46248;58.364;25.582;2023-02-12T03:03:33;0.85;;;0.40;;
59766;SDS011;46248;58.364;25.582;2023-02-12T03:07:03;2.78;;;0.43;;
59766;SDS011;46248;58.364;25.582;2023-02-12T03:10:29;1.02;;;0.35;;
59766;SDS011;46248;58.364;25.582;2023-02-12T03:13:56;1.50;;;1.10;;
59766;SDS011;46248;58.364;25.582;2023-02-12T03:17:22;4.60;;;1.60;;
59766;SDS011;46248;58.364;25.582;2023-02-12T03:20:47;0.63;;;0.57;;
59766;SDS011;46248;58.364;25.582;2023-02-12T03:24:18;4.13;;;1.05;;
59766;SDS011;46248;58.364;25.582;2023-02-12T03:27:45;1.92;;;0.93;;
59766;SDS011;46248;58.364;25.582;2023-02-12T03:31:11;0.73;;;0.55;;
59766;SDS011;46248;58.364;25.582;2023-02-12T03:34:45;1.88;;;1.23;;
59766;SDS011;46248;58.364;25.582;2023-02-12T03:38:11;3.47;;;1.00;;
59766;SDS011;46248;58.364;25.582;2023-02-12T03:41:43;1.38;;;0.65;;
59766;SDS011;46248;58.364;25.582;2023-02-12T03:45:09;1.33;;;1.23;;
59766;SDS011;46248;58.364;25.582;2023-02-12T03:48:40;2.33;;;0.90;;
59766;SDS011;46248;58.364;25.582;2023-02-12T03:52:07;1.85;;;0.80;;
59766;SDS011;46248;58.364;25.582;2023-02-12T03:55:29;0.80;;;0.52;;
59766;SDS011;46248;58.364;25.582;2023-02-12T03:58:57;0.93;;;0.57;;
59766;SDS011;46248;58.364;25.582;2023-02-12T04:02:19;1.65;;;0.60;;
59766;SDS011;46248;58.364;25.582;2023-02-12T04:05:40;4.70;;;0.57;;
59766;SDS011;46248;58.364;25.582;2023-02-12T04:09:03;0.68;;;0.40;;
59766;SDS011;46248;58.364;25.582;2023-02-12T04:12:38;0.38;;;0.38;;
59766;SDS011;46248;58.364;25.582;2023-02-12T04:16:11;0.50;;;0.50;;
59766;SDS011;46248;58.364;25.582;2023-02-12T04:19:43;2.50;;;0.90;;
59766;SDS011;46248;58.364;25.582;2023-02-12T04:23:16;3.67;;;1.05;;
59766;SDS011;46248;58.364;25.582;2023-02-12T04:26:51;1.40;;;0.65;;
59766;SDS011;46248;58.364;25.582;2023-02-12T04:30:19;3.03;;;1.00;;
59766;SDS011;46248;58.364;25.582;2023-02-12T04:33:46;4.40;;;1.83;;
59766;SDS011;46248;58.364;25.582;2023-02-12T04:37:16;5.03;;;1.50;;
59766;SDS011;46248;58.364;25.582;2023-02-12T04:40:39;2.22;;;1.42;;
59766;SDS011;46248;58.364;25.582;2023-02-12T04:44:12;4.68;;;1.30;;
59766;SDS011;46248;58.364;25.582;2023-02-12T04:47:36;4.50;;;1.88;;
59766;SDS011;46248;58.364;25.582;2023-02-12T04:50:59;12.43;;;2.67;;
59766;SDS011;46248;58.364;25.582;2023-02-12T04:54:22;2.53;;;1.80;;
59766;SDS011;46248;58.364;25.582;2023-02-12T04:57:44;6.43;;;1.75;;
59766;SDS011;46248;58.364;25.582;2023-02-12T05:01:06;2.75;;;1.38;;
59766;SDS011;46248;58.364;25.582;2023-02-12T05:04:28;3.08;;;1.05;;
59766;SDS011;46248;58.364;25.582;2023-02-12T05:07:51;4.97;;;1.40;;
59766;SDS011;46248;58.364;25.582;2023-02-12T05:11:13;2.40;;;1.35;;
59766;SDS011;46248;58.364;25.582;2023-02-12T05:14:35;3.47;;;1.23;;
59766;SDS011;46248;58.364;25.582;2023-02-12T05:17:57;2.15;;;1.63;;
59766;SDS011;46248;58.364;25.582;2023-02-12T05:21:18;3.22;;;1.63;;
59766;SDS011;46248;58.364;25.582;2023-02-12T05:24:42;4.10;;;1.85;;
59766;SDS011;46248;58.364;25.582;2023-02-12T05:28:03;2.75;;;1.15;;
59766;SDS011;46248;58.364;25.582;2023-02-12T05:31:26;3.15;;;1.60;;
59766;SDS011;46248;58.364;25.582;2023-02-12T05:34:47;2.60;;;2.03;;
59766;SDS011;46248;58.364;25.582;2023-02-12T05:38:09;4.97;;;2.30;;
59766;SDS011;46248;58.364;25.582;2023-02-12T05:41:33;7.32;;;2.28;;
59766;SDS011;46248;58.364;25.582;2023-02-12T05:44:55;4.85;;;2.35;;
59766;SDS011;46248;58.364;25.582;2023-02-12T05:48:17;5.18;;;2.65;;
59766;SDS011;46248;58.364;25.582;2023-02-12T05:51:39;6.03;;;2.65;;
59766;SDS011;46248;58.364;25.582;2023-02-12T05:55:01;10.25;;;4.00;;
59766;SDS011;46248;58.364;25.582;2023-02-12T05:58:25;11.57;;;4.57;;
59766;SDS011;46248;58.364;25.582;2023-02-12T06:01:47;8.40;;;3.40;;
59766;SDS011;46248;58.364;25.582;2023-02-12T06:05:10;8.15;;;2.75;;
59766;SDS011;46248;58.364;25.582;2023-02-12T06:08:32;5.10;;;2.90;;
59766;SDS011;46248;58.364;25.582;2023-02-12T06:11:54;4.03;;;2.35;;
59766;SDS011;46248;58.364;25.582;2023-02-12T06:15:17;7.03;;;3.35;;
59766;SDS011;46248;58.364;25.582;2023-02-12T06:18:39;3.30;;;2.47;;
59766;SDS011;46248;58.364;25.582;2023-02-12T06:22:01;4.47;;;2.70;;
59766;SDS011;46248;58.364;25.582;2023-02-12T06:25:23;8.07;;;4.68;;
59766;SDS011;46248;58.364;25.582;2023-02-12T06:28:45;8.40;;;5.60;;
59766;SDS011;46248;58.364;25.582;2023-02-12T06:32:08;10.98;;;5.55;;
59766;SDS011;46248;58.364;25.582;2023-02-12T06:35:33;9.02;;;5.57;;
59766;SDS011;46248;58.364;25.582;2023-02-12T06:38:55;16.10;;;8.65;;
59766;SDS011;46248;58.364;25.582;2023-02-12T06:42:17;12.18;;;7.03;;
59766;SDS011;46248;58.364;25.582;2023-02-12T06:45:39;15.90;;;7.95;;
59766;SDS011;46248;58.364;25.582;2023-02-12T06:49:02;23.08;;;9.68;;
59766;SDS011;46248;58.364;25.582;2023-02-12T06:52:24;18.58;;;8.15;;
59766;SDS011;46248;58.364;25.582;2023-02-12T06:55:47;13.07;;;6.85;;
59766;SDS011;46248;58.364;25.582;2023-02-12T06:59:10;19.55;;;7.30;;
59766;SDS011;46248;58.364;25.582;2023-02-12T07:02:33;29.02;;;13.40;;
59766;SDS011;46248;58.364;25.582;2023-02-12T07:05:59;32.45;;;14.65;;
59766;SDS011;46248;58.364;25.582;2023-02-12T07:09:23;74.97;;;30.33;;
59766;SDS011;46248;58.364;25.582;2023-02-12T07:12:45;49.30;;;19.23;;
59766;SDS011;46248;58.364;25.582;2023-02-12T07:16:07;29.85;;;12.00;;
59766;SDS011;46248;58.364;25.582;2023-02-12T07:19:31;70.28;;;23.48;;
59766;SDS011;46248;58.364;25.582;2023-02-12T07:22:54;24.95;;;11.90;;
59766;SDS011;46248;58.364;25.582;2023-02-12T07:26:16;28.65;;;12.70;;
59766;SDS011;46248;58.364;25.582;2023-02-12T07:29:38;20.80;;;11.13;;
59766;SDS011;46248;58.364;25.582;2023-02-12T07:33:00;15.25;;;7.80;;
59766;SDS011;46248;58.364;25.582;2023-02-12T07:36:23;36.75;;;16.50;;
59766;SDS011;46248;58.364;25.582;2023-02-12T07:39:49;36.67;;;16.80;;
59766;SDS011;46248;58.364;25.582;2023-02-12T07:43:11;30.85;;;13.38;;
59766;SDS011;46248;58.364;25.582;2023-02-12T07:46:34;64.88;;;24.88;;
59766;SDS011;46248;58.364;25.582;2023-02-12T07:49:58;31.25;;;12.82;;
59766;SDS011;46248;58.364;25.582;2023-02-12T07:53:20;24.77;;;13.82;;
59766;SDS011;46248;58.364;25.582;2023-02-12T07:56:43;17.73;;;10.73;;
59766;SDS011;46248;58.364;25.582;2023-02-12T08:00:07;16.33;;;9.73;;
59766;SDS011;46248;58.364;25.582;2023-02-12T08:03:30;63.00;;;21.08;;
59766;SDS011;46248;58.364;25.582;2023-02-12T08:06:53;54.42;;;17.95;;
59766;SDS011;46248;58.364;25.582;2023-02-12T08:10:16;34.03;;;13.43;;
59766;SDS011;46248;58.364;25.582;2023-02-12T08:13:42;36.85;;;13.63;;
59766;SDS011;46248;58.364;25.582;2023-02-12T08:17:05;32.58;;;12.63;;
59766;SDS011;46248;58.364;25.582;2023-02-12T08:20:28;19.20;;;7.93;;
59766;SDS011;46248;58.364;25.582;2023-02-12T08:23:49;10.05;;;5.35;;
59766;SDS011;46248;58.364;25.582;2023-02-12T08:27:12;7.78;;;4.45;;
59766;SDS011;46248;58.364;25.582;2023-02-12T08:30:35;12.65;;;6.43;;
59766;SDS011;46248;58.364;25.582;2023-02-12T08:33:57;7.72;;;4.53;;
59766;SDS011;46248;58.364;25.582;2023-02-12T08:37:20;8.68;;;5.15;;
59766;SDS011;46248;58.364;25.582;2023-02-12T08:40:42;9.27;;;4.88;;
59766;SDS011;46248;58.364;25.582;2023-02-12T08:44:04;12.63;;;8.75;;
59766;SDS011;46248;58.364;25.582;2023-02-12T08:47:28;10.20;;;6.85;;
59766;SDS011;46248;58.364;25.582;2023-02-12T08:50:50;13.27;;;6.03;;
59766;SDS011;46248;58.364;25.582;2023-02-12T08:54:13;13.20;;;9.38;;
59766;SDS011;46248;58.364;25.582;2023-02-12T08:57:36;13.32;;;6.25;;
59766;SDS011;46248;58.364;25.582;2023-02-12T09:00:58;11.23;;;7.32;;
59766;SDS011;46248;58.364;25.582;2023-02-12T09:04:22;7.40;;;3.58;;
59766;SDS011;46248;58.364;25.582;2023-02-12T09:07:45;5.38;;;3.78;;
59766;SDS011;46248;58.364;25.582;2023-02-12T09:11:08;8.55;;;3.53;;
59766;SDS011;46248;58.364;25.582;2023-02-12T09:14:32;6.75;;;2.78;;
59766;SDS011;46248;58.364;25.582;2023-02-12T09:17:54;13.35;;;5.75;;
59766;SDS011;46248;58.364;25.582;2023-02-12T09:21:24;11.07;;;3.95;;
59766;SDS011;46248;58.364;25.582;2023-02-12T09:24:46;5.07;;;3.17;;
59766;SDS011;46248;58.364;25.582;2023-02-12T09:28:09;11.07;;;5.65;;
59766;SDS011;46248;58.364;25.582;2023-02-12T09:31:31;11.77;;;4.50;;
59766;SDS011;46248;58.364;25.582;2023-02-12T09:34:53;14.80;;;4.65;;
59766;SDS011;46248;58.364;25.582;2023-02-12T09:38:17;5.50;;;2.97;;
59766;SDS011;46248;58.364;25.582;2023-02-12T09:41:47;9.15;;;3.33;;
59766;SDS011;46248;58.364;25.582;2023-02-12T09:45:24;10.98;;;4.00;;
59766;SDS011;46248;58.364;25.582;2023-02-12T09:48:52;8.55;;;3.20;;
59766;SDS011;46248;58.364;25.582;2023-02-12T10:09:57;5.70;;;3.28;;
59766;SDS011;46248;58.364;25.582;2023-02-12T10:13:32;8.73;;;3.87;;
59766;SDS011;46248;58.364;25.582;2023-02-12T10:17:02;13.38;;;4.00;;
59766;SDS011;46248;58.364;25.582;2023-02-12T10:20:46;13.63;;;5.82;;
59766;SDS011;46248;58.364;25.582;2023-02-12T10:24:22;11.10;;;3.35;;
59766;SDS011;46248;58.364;25.582;2023-02-12T10:27:56;25.48;;;9.35;;
59766;SDS011;46248;58.364;25.582;2023-02-12T10:31:23;7.80;;;3.72;;
59766;SDS011;46248;58.364;25.582;2023-02-12T10:34:50;14.70;;;3.47;;
59766;SDS011;46248;58.364;25.582;2023-02-12T10:38:15;9.25;;;2.88;;
59766;SDS011;46248;58.364;25.582;2023-02-12T10:41:42;5.15;;;2.40;;
59766;SDS011;46248;58.364;25.582;2023-02-12T10:45:13;9.18;;;2.72;;
59766;SDS011;46248;58.364;25.582;2023-02-12T10:48:37;6.43;;;1.90;;
59766;SDS011;46248;58.364;25.582;2023-02-12T10:52:07;9.40;;;3.72;;
59766;SDS011;46248;58.364;25.582;2023-02-12T10:55:35;7.15;;;2.92;;
59766;SDS011;46248;58.364;25.582;2023-02-12T10:58:57;9.35;;;3.28;;
59766;SDS011;46248;58.364;25.582;2023-02-12T11:02:26;8.35;;;2.50;;
59766;SDS011;46248;58.364;25.582;2023-02-12T11:05:50;7.30;;;3.35;;
59766;SDS011;46248;58.364;25.582;2023-02-12T11:09:17;6.75;;;2.08;;
59766;SDS011;46248;58.364;25.582;2023-02-12T11:12:48;5.85;;;3.00;;
59766;SDS011;46248;58.364;25.582;2023-02-12T11:16:10;12.52;;;4.07;;
59766;SDS011;46248;58.364;25.582;2023-02-12T11:19:34;10.23;;;2.95;;
59766;SDS011;46248;58.364;25.582;2023-02-12T11:22:57;15.43;;;3.70;;
59766;SDS011;46248;58.364;25.582;2023-02-12T11:26:24;8.43;;;3.45;;
59766;SDS011;46248;58.364;25.582;2023-02-12T11:30:06;5.93;;;2.70;;
59766;SDS011;46248;58.364;25.582;2023-02-12T11:33:36;7.22;;;2.65;;
59766;SDS011;46248;58.364;25.582;2023-02-12T11:37:00;9.43;;;3.28;;
59766;SDS011;46248;58.364;25.582;2023-02-12T11:40:23;11.43;;;4.20;;
59766;SDS011;46248;58.364;25.582;2023-02-12T11:43:47;11.95;;;4.75;;
59766;SDS011;46248;58.364;25.582;2023-02-12T11:47:19;7.38;;;3.28;;
59766;SDS011;46248;58.364;25.582;2023-02-12T11:50:45;18.77;;;7.07;;
59766;SDS011;46248;58.364;25.582;2023-02-12T11:54:14;14.93;;;6.78;;
59766;SDS011;46248;58.364;25.582;2023-02-12T11:57:43;11.75;;;4.38;;
59766;SDS011;46248;58.364;25.582;2023-02-12T12:01:11;8.02;;;3.40;;
59766;SDS011;46248;58.364;25.582;2023-02-12T12:04:38;5.63;;;2.30;;
59766;SDS011;46248;58.364;25.582;2023-02-12T12:08:03;9.40;;;2.70;;
59766;SDS011;46248;58.364;25.582;2023-02-12T12:11:39;6.95;;;2.15;;
59766;SDS011;46248;58.364;25.582;2023-02-12T12:15:09;4.35;;;2.10;;
59766;SDS011;46248;58.364;25.582;2023-02-12T12:18:59;3.45;;;1.40;;
59766;SDS011;46248;58.364;25.582;2023-02-12T12:22:45;7.40;;;1.83;;
59766;SDS011;46248;58.364;25.582;2023-02-12T12:26:16;4.93;;;1.77;;
59766;SDS011;46248;58.364;25.582;2023-02-12T12:29:46;9.73;;;2.10;;
59766;SDS011;46248;58.364;25.582;2023-02-12T12:33:15;11.98;;;4.72;;
59766;SDS011;46248;58.364;25.582;2023-02-12T12:36:45;27.77;;;8.55;;
59766;SDS011;46248;58.364;25.582;2023-02-12T12:40:27;23.67;;;9.23;;
59766;SDS011;46248;58.364;25.582;2023-02-12T12:44:02;17.67;;;7.05;;
59766;SDS011;46248;58.364;25.582;2023-02-12T12:47:42;14.32;;;6.28;;
59766;SDS011;46248;58.364;25.582;2023-02-12T12:51:22;7.85;;;3.72;;
59766;SDS011;46248;58.364;25.582;2023-02-12T12:55:02;10.20;;;4.05;;
59766;SDS011;46248;58.364;25.582;2023-02-12T12:58:36;9.32;;;3.60;;
59766;SDS011;46248;58.364;25.582;2023-02-12T13:02:22;9.13;;;4.20;;
59766;SDS011;46248;58.364;25.582;2023-02-12T13:10:12;7.30;;;3.40;;
59766;SDS011;46248;58.364;25.582;2023-02-12T13:13:42;13.90;;;4.43;;
59766;SDS011;46248;58.364;25.582;2023-02-12T13:17:09;8.75;;;3.15;;
59766;SDS011;46248;58.364;25.582;2023-02-12T13:20:38;6.57;;;3.20;;
59766;SDS011;46248;58.364;25.582;2023-02-12T13:24:11;11.43;;;2.90;;
59766;SDS011;46248;58.364;25.582;2023-02-12T13:27:44;7.35;;;2.72;;
59766;SDS011;46248;58.364;25.582;2023-02-12T13:31:09;9.82;;;3.92;;
59766;SDS011;46248;58.364;25.582;2023-02-12T13:34:55;18.58;;;6.25;;
59766;SDS011;46248;58.364;25.582;2023-02-12T13:38:19;32.00;;;13.23;;
59766;SDS011;46248;58.364;25.582;2023-02-12T13:41:51;12.02;;;4.03;;
59766;SDS011;46248;58.364;25.582;2023-02-12T13:45:33;22.80;;;9.32;;
59766;SDS011;46248;58.364;25.582;2023-02-12T13:49:06;32.58;;;9.18;;
59766;SDS011;46248;58.364;25.582;2023-02-12T13:52:39;22.98;;;7.72;;
59766;SDS011;46248;58.364;25.582;2023-02-12T13:56:10;27.95;;;10.68;;
59766;SDS011;46248;58.364;25.582;2023-02-12T13:59:49;18.67;;;6.63;;
59766;SDS011;46248;58.364;25.582;2023-02-12T14:03:12;19.88;;;7.05;;
59766;SDS011;46248;58.364;25.582;2023-02-12T14:06:35;45.35;;;15.85;;
59766;SDS011;46248;58.364;25.582;2023-02-12T14:10:00;27.63;;;9.98;;
59766;SDS011;46248;58.364;25.582;2023-02-12T14:13:26;14.80;;;5.90;;
59766;SDS011;46248;58.364;25.582;2023-02-12T14:16:54;15.30;;;7.32;;
59766;SDS011;46248;58.364;25.582;2023-02-12T14:20:23;15.57;;;5.93;;
59766;SDS011;46248;58.364;25.582;2023-02-12T14:23:45;17.85;;;5.63;;
59766;SDS011;46248;58.364;25.582;2023-02-12T14:27:16;18.58;;;13.73;;
59766;SDS011;46248;58.364;25.582;2023-02-12T14:30:42;15.60;;;4.78;;
59766;SDS011;46248;58.364;25.582;2023-02-12T14:38:00;18.73;;;9.25;;
59766;SDS011;46248;58.364;25.582;2023-02-12T14:41:24;38.53;;;13.20;;
59766;SDS011;46248;58.364;25.582;2023-02-12T14:45:02;29.13;;;10.35;;
59766;SDS011;46248;58.364;25.582;2023-02-12T14:48:37;15.63;;;8.48;;
59766;SDS011;46248;58.364;25.582;2023-02-12T14:52:03;16.58;;;8.20;;
59766;SDS011;46248;58.364;25.582;2023-02-12T14:55:33;18.92;;;8.57;;
59766;SDS011;46248;58.364;25.582;2023-02-12T14:58:56;13.65;;;5.50;;
59766;SDS011;46248;58.364;25.582;2023-02-12T15:02:23;16.63;;;4.72;;
59766;SDS011;46248;58.364;25.582;2023-02-12T15:05:48;44.45;;;15.65;;
59766;SDS011;46248;58.364;25.582;2023-02-12T15:09:20;32.03;;;11.93;;
59766;SDS011;46248;58.364;25.582;2023-02-12T15:12:51;58.10;;;17.73;;
59766;SDS011;46248;58.364;25.582;2023-02-12T15:16:21;34.85;;;12.10;;
59766;SDS011;46248;58.364;25.582;2023-02-12T15:19:52;12.38;;;5.20;;
59766;SDS011;46248;58.364;25.582;2023-02-12T15:23:32;9.50;;;3.67;;
59766;SDS011;46248;58.364;25.582;2023-02-12T15:26:58;25.17;;;11.63;;
59766;SDS011;46248;58.364;25.582;2023-02-12T15:30:22;24.00;;;11.18;;
59766;SDS011;46248;58.364;25.582;2023-02-12T15:33:46;11.57;;;5.75;;
59766;SDS011;46248;58.364;25.582;2023-02-12T15:37:14;19.58;;;12.40;;
59766;SDS011;46248;58.364;25.582;2023-02-12T15:40:51;17.27;;;8.50;;
59766;SDS011;46248;58.364;25.582;2023-02-12T15:44:21;13.35;;;7.50;;
59766;SDS011;46248;58.364;25.582;2023-02-12T15:47:53;15.93;;;8.00;;
59766;SDS011;46248;58.364;25.582;2023-02-12T15:51:20;14.02;;;7.68;;
59766;SDS011;46248;58.364;25.582;2023-02-12T15:54:48;15.27;;;5.53;;
59766;SDS011;46248;58.364;25.582;2023-02-12T15:58:17;14.43;;;6.35;;
59766;SDS011;46248;58.364;25.582;2023-02-12T16:01:50;12.93;;;5.15;;
59766;SDS011;46248;58.364;25.582;2023-02-12T16:05:13;16.80;;;3.85;;
59766;SDS011;46248;58.364;25.582;2023-02-12T16:08:37;19.98;;;5.32;;
59766;SDS011;46248;58.364;25.582;2023-02-12T16:12:01;7.85;;;4.00;;
59766;SDS011;46248;58.364;25.582;2023-02-12T16:15:30;11.43;;;4.65;;
59766;SDS011;46248;58.364;25.582;2023-02-12T16:19:06;33.70;;;17.80;;
59766;SDS011;46248;58.364;25.582;2023-02-12T16:22:38;14.93;;;5.30;;
59766;SDS011;46248;58.364;25.582;2023-02-12T16:26:02;9.13;;;4.22;;
59766;SDS011;46248;58.364;25.582;2023-02-12T16:29:24;21.48;;;6.85;;
59766;SDS011;46248;58.364;25.582;2023-02-12T16:32:46;17.80;;;6.22;;
59766;SDS011;46248;58.364;25.582;2023-02-12T16:36:12;15.18;;;4.72;;
59766;SDS011;46248;58.364;25.582;2023-02-12T16:40:08;13.25;;;5.35;;
59766;SDS011;46248;58.364;25.582;2023-02-12T16:43:40;10.65;;;4.18;;
59766;SDS011;46248;58.364;25.582;2023-02-12T16:47:02;11.70;;;4.38;;
59766;SDS011;46248;58.364;25.582;2023-02-12T16:50:25;9.40;;;3.60;;
59766;SDS011;46248;58.364;25.582;2023-02-12T16:53:51;14.70;;;5.75;;
59766;SDS011;46248;58.364;25.582;2023-02-12T16:57:17;16.13;;;4.43;;
59766;SDS011;46248;58.364;25.582;2023-02-12T17:00:39;7.65;;;3.90;;
59766;SDS011;46248;58.364;25.582;2023-02-12T17:04:03;6.80;;;2.97;;
59766;SDS011;46248;58.364;25.582;2023-02-12T17:07:27;7.90;;;3.38;;
59766;SDS011;46248;58.364;25.582;2023-02-12T17:10:51;14.13;;;3.85;;
59766;SDS011;46248;58.364;25.582;2023-02-12T17:14:14;6.43;;;2.50;;
59766;SDS011;46248;58.364;25.582;2023-02-12T17:17:37;14.13;;;5.10;;
59766;SDS011;46248;58.364;25.582;2023-02-12T17:21:00;17.60;;;4.65;;
59766;SDS011;46248;58.364;25.582;2023-02-12T17:24:25;15.27;;;6.00;;
59766;SDS011;46248;58.364;25.582;2023-02-12T17:27:50;10.10;;;3.88;;
59766;SDS011;46248;58.364;25.582;2023-02-12T17:31:12;8.10;;;3.97;;
59766;SDS011;46248;58.364;25.582;2023-02-12T17:34:35;9.15;;;3.10;;
59766;SDS011;46248;58.364;25.582;2023-02-12T17:38:08;6.97;;;2.65;;
59766;SDS011;46248;58.364;25.582;2023-02-12T17:41:30;10.60;;;3.97;;
59766;SDS011;46248;58.364;25.582;2023-02-12T17:44:53;8.82;;;3.92;;
59766;SDS011;46248;58.364;25.582;2023-02-12T17:48:15;12.53;;;5.43;;
59766;SDS011;46248;58.364;25.582;2023-02-12T17:51:38;14.13;;;7.43;;
59766;SDS011;46248;58.364;25.582;2023-02-12T17:55:00;16.00;;;10.13;;
59766;SDS011;46248;58.364;25.582;2023-02-12T17:58:22;13.15;;;6.68;;
59766;SDS011;46248;58.364;25.582;2023-02-12T18:01:45;11.52;;;8.70;;
59766;SDS011;46248;58.364;25.582;2023-02-12T18:05:07;10.73;;;5.63;;
59766;SDS011;46248;58.364;25.582;2023-02-12T18:08:29;7.13;;;4.93;;
59766;SDS011;46248;58.364;25.582;2023-02-12T18:11:52;7.07;;;2.97;;
59766;SDS011;46248;58.364;25.582;2023-02-12T18:15:15;2.23;;;1.92;;
59766;SDS011;46248;58.364;25.582;2023-02-12T18:18:39;5.07;;;2.15;;
59766;SDS011;46248;58.364;25.582;2023-02-12T18:22:00;7.53;;;2.88;;
59766;SDS011;46248;58.364;25.582;2023-02-12T18:25:23;4.68;;;2.45;;
59766;SDS011;46248;58.364;25.582;2023-02-12T18:28:45;6.35;;;2.13;;
59766;SDS011;46248;58.364;25.582;2023-02-12T18:32:07;5.25;;;2.63;;
59766;SDS011;46248;58.364;25.582;2023-02-12T18:35:35;2.83;;;2.20;;
59766;SDS011;46248;58.364;25.582;2023-02-12T18:38:57;4.28;;;1.70;;
59766;SDS011;46248;58.364;25.582;2023-02-12T18:42:20;4.65;;;1.83;;
59766;SDS011;46248;58.364;25.582;2023-02-12T18:45:42;2.85;;;2.03;;
59766;SDS011;46248;58.364;25.582;2023-02-12T18:49:05;3.90;;;2.08;;
59766;SDS011;46248;58.364;25.582;2023-02-12T18:52:29;3.88;;;1.98;;
59766;SDS011;46248;58.364;25.582;2023-02-12T18:55:51;7.65;;;2.58;;
59766;SDS011;46248;58.364;25.582;2023-02-12T18:59:13;5.88;;;2.22;;
59766;SDS011;46248;58.364;25.582;2023-02-12T19:02:36;7.47;;;3.30;;
59766;SDS011;46248;58.364;25.582;2023-02-12T19:06:01;12.55;;;5.25;;
59766;SDS011;46248;58.364;25.582;2023-02-12T19:09:25;6.10;;;2.20;;
59766;SDS011;46248;58.364;25.582;2023-02-12T19:12:47;14.57;;;5.20;;
59766;SDS011;46248;58.364;25.582;2023-02-12T19:16:12;10.35;;;3.90;;
59766;SDS011;46248;58.364;25.582;2023-02-12T19:19:36;8.07;;;3.75;;
59766;SDS011;46248;58.364;25.582;2023-02-12T19:22:58;10.23;;;3.10;;
59766;SDS011;46248;58.364;25.582;2023-02-12T19:26:21;10.00;;;3.20;;
59766;SDS011;46248;58.364;25.582;2023-02-12T19:29:44;5.25;;;2.13;;
59766;SDS011;46248;58.364;25.582;2023-02-12T19:33:06;4.32;;;2.70;;
59766;SDS011;46248;58.364;25.582;2023-02-12T19:36:29;8.65;;;2.50;;
59766;SDS011;46248;58.364;25.582;2023-02-12T19:39:52;5.10;;;2.70;;
59766;SDS011;46248;58.364;25.582;2023-02-12T19:43:16;7.55;;;3.55;;
59766;SDS011;46248;58.364;25.582;2023-02-12T19:46:38;7.55;;;2.95;;
59766;SDS011;46248;58.364;25.582;2023-02-12T19:50:01;11.07;;;2.75;;
59766;SDS011;46248;58.364;25.582;2023-02-12T19:53:23;6.07;;;2.83;;
59766;SDS011;46248;58.364;25.582;2023-02-12T19:56:45;14.88;;;2.95;;
59766;SDS011;46248;58.364;25.582;2023-02-12T20:00:09;9.65;;;3.40;;
59766;SDS011;46248;58.364;25.582;2023-02-12T20:03:32;12.75;;;5.03;;
59766;SDS011;46248;58.364;25.582;2023-02-12T20:06:54;10.10;;;4.22;;
59766;SDS011;46248;58.364;25.582;2023-02-12T20:10:16;12.88;;;3.97;;
59766;SDS011;46248;58.364;25.582;2023-02-12T20:13:39;13.90;;;3.58;;
59766;SDS011;46248;58.364;25.582;2023-02-12T20:17:03;14.35;;;3.47;;
59766;SDS011;46248;58.364;25.582;2023-02-12T20:20:25;12.15;;;2.60;;
59766;SDS011;46248;58.364;25.582;2023-02-12T20:23:47;13.63;;;3.60;;
59766;SDS011;46248;58.364;25.582;2023-02-12T20:27:09;13.63;;;4.15;;
59766;SDS011;46248;58.364;25.582;2023-02-12T20:30:32;7.40;;;3.47;;
59766;SDS011;46248;58.364;25.582;2023-02-12T20:33:56;9.77;;;3.40;;
59766;SDS011;46248;58.364;25.582;2023-02-12T20:37:19;8.80;;;3.45;;
59766;SDS011;46248;58.364;25.582;2023-02-12T20:40:41;13.88;;;3.67;;
59766;SDS011;46248;58.364;25.582;2023-02-12T20:44:03;8.18;;;3.53;;
59766;SDS011;46248;58.364;25.582;2023-02-12T20:47:26;14.88;;;3.63;;
59766;SDS011;46248;58.364;25.582;2023-02-12T20:50:50;12.50;;;4.70;;